createdAt,value
2022-11-02T00:04:02.120Z,100985.69
2022-11-02T00:09:03.785Z,100978.84
2022-11-02T00:14:05.334Z,100980.44
2022-11-02T00:19:08.822Z,100977.66
2022-11-02T00:24:12.504Z,100978.25
2022-11-02T00:29:14.128Z,100970.59
2022-11-02T00:34:15.631Z,100975.00
2022-11-02T00:39:17.188Z,100978.56
2022-11-02T00:44:18.682Z,100981.91
2022-11-02T00:49:20.862Z,100986.84
2022-11-02T00:54:25.960Z,100981.78
2022-11-02T00:59:29.997Z,100975.78
2022-11-02T01:04:31.567Z,100977.66
2022-11-02T01:09:34.599Z,100982.88
2022-11-02T01:14:37.702Z,100981.13
2022-11-02T01:19:39.259Z,100971.78
2022-11-02T01:24:40.721Z,100970.94
2022-11-02T01:29:42.220Z,100970.16
2022-11-02T01:34:43.823Z,100964.75
2022-11-02T01:39:45.345Z,100954.91
2022-11-02T01:44:47.106Z,100941.53
2022-11-02T01:49:53.799Z,100929.78
2022-11-02T01:55:00.210Z,100934.88
2022-11-02T02:00:08.637Z,100932.91
2022-11-02T02:05:11.233Z,100933.00
2022-11-02T02:10:12.858Z,100927.88
2022-11-02T02:15:14.789Z,100920.94
2022-11-02T02:20:31.291Z,100920.06
2022-11-02T02:25:38.787Z,100929.19
2022-11-02T02:30:46.895Z,100918.34
2022-11-02T02:36:00.816Z,100912.31
2022-11-02T02:41:05.112Z,100905.31
2022-11-02T02:46:13.496Z,100905.06
2022-11-02T02:51:21.482Z,100909.34
2022-11-02T02:56:26.320Z,100914.78
2022-11-02T03:01:28.586Z,100907.28
2022-11-02T03:06:33.102Z,100909.03
2022-11-02T03:11:43.025Z,100907.28
2022-11-02T03:16:56.183Z,100906.50
2022-11-02T03:22:33.892Z,100914.50
2022-11-02T03:27:40.024Z,100915.66
2022-11-02T03:33:08.438Z,100926.13
2022-11-02T03:38:17.944Z,100932.06
2022-11-02T03:43:21.357Z,100935.44
2022-11-02T03:48:27.209Z,100939.84
2022-11-02T03:53:40.577Z,100940.84
2022-11-02T03:58:42.161Z,100937.44
2022-11-02T04:03:46.105Z,100930.56
2022-11-02T04:08:49.107Z,100937.28
2022-11-02T04:14:09.436Z,100936.59
2022-11-02T04:19:29.393Z,100945.34
2022-11-02T04:24:49.551Z,100966.00
2022-11-02T04:29:51.195Z,100971.19
2022-11-02T04:34:52.674Z,100986.59
2022-11-02T04:39:54.090Z,101006.06
2022-11-02T04:44:55.566Z,101008.03
2022-11-02T04:49:57.126Z,101034.66
2022-11-02T04:54:58.635Z,101042.75
2022-11-02T05:00:00.214Z,101041.53
2022-11-02T05:05:01.708Z,101042.16
2022-11-02T05:10:03.806Z,101039.44
2022-11-02T05:15:05.978Z,101045.94
2022-11-02T05:20:08.707Z,101047.47
2022-11-02T05:25:11.162Z,101042.41
2022-11-02T05:30:14.146Z,101061.38
2022-11-02T05:35:15.697Z,101064.88
2022-11-02T05:40:17.207Z,101076.06
2022-11-02T05:45:22.054Z,101095.75
2022-11-02T05:50:26.004Z,101085.59
2022-11-02T05:55:27.979Z,101087.47
2022-11-02T06:00:29.589Z,101085.94
2022-11-02T06:05:31.158Z,101092.94
2022-11-02T06:10:32.752Z,101105.69
2022-11-02T06:15:34.236Z,101106.56
2022-11-02T06:20:35.835Z,101121.97
2022-11-02T06:25:37.279Z,101122.84
2022-11-02T06:30:38.739Z,101131.47
2022-11-02T06:35:40.275Z,101146.78
2022-11-02T06:40:42.064Z,101150.97
2022-11-02T06:45:43.634Z,101165.53
2022-11-02T06:50:45.178Z,101169.78
2022-11-02T06:55:52.850Z,101171.53
2022-11-02T07:00:59.647Z,101178.16
2022-11-02T07:06:01.689Z,101179.50
2022-11-02T07:11:03.608Z,101185.88
2022-11-02T07:16:05.309Z,101184.53
2022-11-02T07:21:07.134Z,101192.56
2022-11-02T07:26:08.646Z,101195.56
2022-11-02T07:31:10.160Z,101211.47
2022-11-02T07:36:11.727Z,101212.16
2022-11-02T07:41:14.377Z,101212.13
2022-11-02T07:46:15.963Z,101223.13
2022-11-02T07:51:17.422Z,101221.97
2022-11-02T07:56:20.087Z,101230.69
2022-11-02T08:01:21.653Z,101232.69
2022-11-02T08:06:23.203Z,101248.81
2022-11-02T08:11:25.164Z,101255.66
2022-11-02T08:16:26.734Z,101251.22
2022-11-02T08:21:28.202Z,101256.75
2022-11-02T08:26:29.688Z,101256.63
2022-11-02T08:31:31.163Z,101252.84
2022-11-02T08:36:35.836Z,101257.91
2022-11-02T08:41:37.335Z,101247.84
2022-11-02T08:46:38.784Z,101263.03
2022-11-02T08:51:43.226Z,101259.91
2022-11-02T08:56:44.691Z,101261.47
2022-11-02T09:01:46.330Z,101252.06
2022-11-02T09:06:50.460Z,101265.56
2022-11-02T09:11:52.019Z,101264.84
2022-11-02T09:16:53.486Z,101262.66
2022-11-02T09:21:55.005Z,101265.16
2022-11-02T09:26:56.496Z,101270.03
2022-11-02T09:31:57.990Z,101273.50
2022-11-02T09:36:59.443Z,101274.16
2022-11-02T09:42:23.860Z,101287.22
2022-11-02T09:48:10.725Z,101277.44
2022-11-02T09:52:58.053Z,101286.03
2022-11-02T09:58:05.949Z,101282.97
2022-11-02T10:03:39.044Z,101275.78
2022-11-02T10:08:43.528Z,101276.44
2022-11-02T10:13:56.659Z,101266.31
2022-11-02T10:18:58.711Z,101268.94
2022-11-02T10:24:18.733Z,101261.41
2022-11-02T10:29:42.171Z,101258.78
2022-11-02T10:34:54.152Z,101268.47
2022-11-02T10:40:19.262Z,101281.53
2022-11-02T10:45:32.944Z,101281.88
2022-11-02T10:50:47.612Z,101282.69
2022-11-02T10:56:01.662Z,101281.69
2022-11-02T11:01:11.605Z,101277.72
2022-11-02T11:06:13.210Z,101271.25
2022-11-02T11:11:19.745Z,101256.44
2022-11-02T11:16:32.197Z,101256.63
2022-11-02T11:21:39.208Z,101258.69
2022-11-02T11:26:40.663Z,101255.09
2022-11-02T11:31:42.170Z,101251.34
2022-11-02T11:36:43.773Z,101245.13
2022-11-02T11:41:45.340Z,101225.03
2022-11-02T11:46:50.772Z,101219.84
2022-11-02T11:51:55.326Z,101231.84
2022-11-02T11:56:59.269Z,101214.06
2022-11-02T12:02:02.584Z,101206.41
2022-11-02T12:07:23.685Z,101207.88
2022-11-02T12:12:37.109Z,101202.50
2022-11-02T12:18:03.722Z,101199.78
2022-11-02T12:23:24.173Z,101191.75
2022-11-02T12:28:33.189Z,101191.63
2022-11-02T12:34:08.990Z,101182.91
2022-11-02T12:39:42.030Z,101179.91
2022-11-02T12:45:09.782Z,101177.28
2022-11-02T12:50:21.461Z,101167.03
2022-11-02T12:55:33.034Z,101154.25
2022-11-02T13:00:42.878Z,101154.06
2022-11-02T13:05:54.643Z,101157.59
2022-11-02T13:11:01.519Z,101146.09
2022-11-02T13:16:04.743Z,101139.66
2022-11-02T13:21:06.848Z,101146.66
2022-11-02T13:26:41.466Z,101141.13
2022-11-02T13:31:48.712Z,101143.44
2022-11-02T13:36:50.249Z,101148.38
2022-11-02T13:42:11.430Z,101134.34
2022-11-02T13:47:34.345Z,101120.84
2022-11-02T13:52:41.524Z,101117.97
2022-11-02T13:57:46.551Z,101124.50
2022-11-02T14:02:50.348Z,101125.34
2022-11-02T14:07:51.990Z,101120.00
2022-11-02T14:12:53.507Z,101115.38
2022-11-02T14:17:55.141Z,101114.00
2022-11-02T14:23:12.187Z,101125.44
2022-11-02T14:28:31.791Z,101118.91
2022-11-02T14:33:51.758Z,101104.75
2022-11-02T14:39:25.567Z,101110.34
2022-11-02T14:44:53.427Z,101108.19
2022-11-02T14:50:20.318Z,101104.22
2022-11-02T14:55:28.348Z,101093.38
2022-11-02T15:00:57.152Z,101084.28
2022-11-02T15:06:10.877Z,101078.44
2022-11-02T15:11:49.454Z,101080.38
2022-11-02T15:16:51.039Z,101072.91
2022-11-02T15:21:53.576Z,101068.16
2022-11-02T15:26:59.495Z,101070.19
2022-11-02T15:32:03.264Z,101079.19
2022-11-02T15:37:05.614Z,101075.41
2022-11-02T15:42:31.668Z,101073.44
2022-11-02T15:47:52.124Z,101068.94
2022-11-02T15:53:27.302Z,101061.91
2022-11-02T15:58:47.409Z,101055.69
2022-11-02T16:04:17.051Z,101059.75
2022-11-02T16:09:31.610Z,101064.81
2022-11-02T16:14:33.225Z,101054.47
2022-11-02T16:19:34.792Z,101047.47
2022-11-02T16:24:46.793Z,101053.28
2022-11-02T16:29:50.556Z,101054.81
2022-11-02T16:34:52.217Z,101045.44
2022-11-02T16:39:54.141Z,101051.19
2022-11-02T16:44:58.627Z,101049.03
2022-11-02T16:50:00.280Z,101040.91
2022-11-02T16:55:02.515Z,101046.69
2022-11-02T17:00:11.402Z,101045.75
2022-11-02T17:05:17.723Z,101041.19
2022-11-02T17:10:24.145Z,101032.06
2022-11-02T17:15:28.700Z,101028.06
2022-11-02T17:20:30.182Z,101031.72
2022-11-02T17:25:31.681Z,101030.34
2022-11-02T17:30:33.083Z,101032.34
2022-11-02T17:35:35.245Z,101030.03
2022-11-02T17:40:37.818Z,101032.75
2022-11-02T17:45:39.384Z,101027.91
2022-11-02T17:50:41.737Z,101032.44
2022-11-02T17:55:43.279Z,101016.56
2022-11-02T18:00:44.893Z,101009.97
2022-11-02T18:05:50.084Z,101017.09
2022-11-02T18:10:53.131Z,101005.34
2022-11-02T18:15:54.658Z,101005.50
2022-11-02T18:20:56.568Z,101009.06
2022-11-02T18:25:59.416Z,101005.75
2022-11-02T18:31:01.102Z,100994.09
2022-11-02T18:36:10.106Z,100994.28
2022-11-02T18:41:30.813Z,100996.84
2022-11-02T18:46:32.342Z,100993.56
2022-11-02T18:51:33.884Z,100985.19
2022-11-02T18:56:35.458Z,100987.91
2022-11-02T19:01:37.290Z,100988.16
2022-11-02T19:06:57.519Z,100981.50
2022-11-02T19:12:04.175Z,100980.66
2022-11-02T19:17:06.684Z,100979.94
2022-11-02T19:22:12.015Z,100960.56
2022-11-02T19:27:19.974Z,100960.66
2022-11-02T19:32:21.638Z,100964.19
2022-11-02T19:37:23.280Z,100961.78
2022-11-02T19:42:24.788Z,100967.84
2022-11-02T19:47:27.675Z,100970.56
2022-11-02T19:52:29.140Z,100962.16
2022-11-02T19:57:33.174Z,100957.13
2022-11-02T20:02:35.054Z,100958.91
2022-11-02T20:07:36.601Z,100946.31
2022-11-02T20:12:38.679Z,100941.31
2022-11-02T20:18:05.340Z,100948.22
2022-11-02T20:23:04.310Z,100952.63
2022-11-02T20:28:06.137Z,100940.03
2022-11-02T20:33:08.262Z,100945.16
2022-11-02T20:38:09.807Z,100938.41
2022-11-02T20:43:11.280Z,100931.56
2022-11-02T20:48:12.863Z,100922.19
2022-11-02T20:53:14.528Z,100918.88
2022-11-02T20:58:16.055Z,100917.22
2022-11-02T21:03:18.005Z,100915.66
2022-11-02T21:08:22.219Z,100914.09
2022-11-02T21:13:42.455Z,100902.34
2022-11-02T21:18:44.518Z,100908.41
2022-11-02T21:23:46.457Z,100901.66
2022-11-02T21:28:47.942Z,100894.22
2022-11-02T21:33:50.082Z,100890.06
2022-11-02T21:38:51.607Z,100887.59
2022-11-02T21:43:55.447Z,100884.16
2022-11-02T21:48:57.209Z,100877.25
2022-11-02T21:53:58.704Z,100876.34
2022-11-02T21:59:00.192Z,100874.63
2022-11-02T22:04:02.106Z,100863.66
2022-11-02T22:09:05.291Z,100869.63
2022-11-02T22:14:06.794Z,100856.22
2022-11-02T22:19:13.148Z,100853.72
2022-11-02T22:24:14.648Z,100855.41
2022-11-02T22:29:16.231Z,100856.25
2022-11-02T22:34:17.667Z,100859.63
2022-11-02T22:39:19.117Z,100862.19
2022-11-02T22:44:22.129Z,100875.00
2022-11-02T22:49:23.576Z,100871.88
2022-11-02T22:54:25.061Z,100877.16
2022-11-02T22:59:26.473Z,100873.00
2022-11-02T23:04:27.910Z,100875.59
2022-11-02T23:09:29.337Z,100868.09
2022-11-02T23:14:30.881Z,100855.38
2022-11-02T23:19:33.069Z,100852.81
2022-11-02T23:24:52.947Z,100849.41
2022-11-02T23:30:12.904Z,100845.19
2022-11-02T23:35:35.906Z,100835.03
2022-11-02T23:40:37.354Z,100830.03
2022-11-02T23:45:38.813Z,100825.81
2022-11-02T23:50:58.880Z,100826.72
2022-11-02T23:56:19.546Z,100820.84
